sensor_id;sensor_type;location;lat;lon;timestamp;pressure;altitude;pressure_sealevel;temperature;humidity
40992;BME280;29633;49.168;9.848;2022-08-03T00:00:43;96973.75;;;25.31;44.06
40992;BME280;29633;49.168;9.848;2022-08-03T00:03:09;96966.66;;;25.25;44.09
40992;BME280;29633;49.168;9.848;2022-08-03T00:05:35;96965.84;;;25.24;44.49
40992;BME280;29633;49.168;9.848;2022-08-03T00:08:02;96954.41;;;25.24;44.41
40992;BME280;29633;49.168;9.848;2022-08-03T00:10:28;96967.28;;;25.20;44.39
40992;BME280;29633;49.168;9.848;2022-08-03T00:12:54;96964.38;;;25.22;44.73
40992;BME280;29633;49.168;9.848;2022-08-03T00:15:20;96961.34;;;25.18;44.62
40992;BME280;29633;49.168;9.848;2022-08-03T00:17:45;96962.19;;;25.12;44.67
40992;BME280;29633;49.168;9.848;2022-08-03T00:20:11;96963.84;;;25.07;44.62
40992;BME280;29633;49.168;9.848;2022-08-03T00:22:37;96963.66;;;25.02;44.54
40992;BME280;29633;49.168;9.848;2022-08-03T00:25:03;96960.41;;;25.00;44.85
40992;BME280;29633;49.168;9.848;2022-08-03T00:27:29;96959.59;;;24.99;44.91
40992;BME280;29633;49.168;9.848;2022-08-03T00:29:55;96961.84;;;24.95;44.76
40992;BME280;29633;49.168;9.848;2022-08-03T00:32:21;96960.41;;;24.93;44.73
40992;BME280;29633;49.168;9.848;2022-08-03T00:34:46;96965.13;;;24.91;45.19
40992;BME280;29633;49.168;9.848;2022-08-03T00:37:12;96961.84;;;24.89;45.01
40992;BME280;29633;49.168;9.848;2022-08-03T00:39:38;96956.53;;;24.82;45.23
40992;BME280;29633;49.168;9.848;2022-08-03T00:42:06;96955.72;;;24.75;45.22
40992;BME280;29633;49.168;9.848;2022-08-03T00:44:42;96956.97;;;24.73;45.54
40992;BME280;29633;49.168;9.848;2022-08-03T00:47:09;96956.38;;;24.64;45.23
40992;BME280;29633;49.168;9.848;2022-08-03T00:49:39;96956.19;;;24.59;45.58
40992;BME280;29633;49.168;9.848;2022-08-03T00:52:07;96957.38;;;24.57;45.38
40992;BME280;29633;49.168;9.848;2022-08-03T00:54:36;96952.09;;;24.57;45.40
40992;BME280;29633;49.168;9.848;2022-08-03T00:57:02;96958.03;;;24.52;45.62
40992;BME280;29633;49.168;9.848;2022-08-03T00:59:29;96958.41;;;24.49;45.64
40992;BME280;29633;49.168;9.848;2022-08-03T01:01:55;96955.78;;;24.36;45.91
40992;BME280;29633;49.168;9.848;2022-08-03T01:04:21;96957.81;;;24.27;45.97
40992;BME280;29633;49.168;9.848;2022-08-03T01:06:59;96956.63;;;24.23;45.80
40992;BME280;29633;49.168;9.848;2022-08-03T01:12:35;96954.34;;;24.20;46.26
40992;BME280;29633;49.168;9.848;2022-08-03T01:15:30;96950.09;;;24.19;46.17
40992;BME280;29633;49.168;9.848;2022-08-03T01:18:07;96951.72;;;24.20;46.21
40992;BME280;29633;49.168;9.848;2022-08-03T01:20:38;96949.88;;;24.21;46.19
40992;BME280;29633;49.168;9.848;2022-08-03T01:26:12;96952.53;;;24.21;46.50
40992;BME280;29633;49.168;9.848;2022-08-03T01:29:13;96939.50;;;24.19;46.62
40992;BME280;29633;49.168;9.848;2022-08-03T01:31:49;96946.81;;;24.17;46.66
40992;BME280;29633;49.168;9.848;2022-08-03T01:34:19;96948.88;;;24.15;46.42
40992;BME280;29633;49.168;9.848;2022-08-03T01:36:52;96941.94;;;24.14;46.44
40992;BME280;29633;49.168;9.848;2022-08-03T01:39:21;96947.25;;;24.14;46.74
40992;BME280;29633;49.168;9.848;2022-08-03T01:41:55;96938.47;;;24.14;46.86
40992;BME280;29633;49.168;9.848;2022-08-03T01:44:29;96938.47;;;24.14;47.01
40992;BME280;29633;49.168;9.848;2022-08-03T01:46:58;96936.44;;;24.16;46.97
40992;BME280;29633;49.168;9.848;2022-08-03T01:49:27;96936.44;;;24.16;46.65
40992;BME280;29633;49.168;9.848;2022-08-03T01:51:55;96923.41;;;24.14;46.68
40992;BME280;29633;49.168;9.848;2022-08-03T01:54:23;96923.59;;;24.13;47.04
40992;BME280;29633;49.168;9.848;2022-08-03T01:56:51;96926.03;;;24.14;46.93
40992;BME280;29633;49.168;9.848;2022-08-03T01:59:19;96930.34;;;24.15;47.40
40992;BME280;29633;49.168;9.848;2022-08-03T02:01:47;96926.03;;;24.14;46.94
40992;BME280;29633;49.168;9.848;2022-08-03T02:04:17;96920.56;;;24.16;46.94
40992;BME280;29633;49.168;9.848;2022-08-03T02:06:45;96925.59;;;24.11;47.06
40992;BME280;29633;49.168;9.848;2022-08-03T02:09:14;96925.19;;;24.07;47.45
40992;BME280;29633;49.168;9.848;2022-08-03T02:11:41;96930.50;;;24.07;47.15
40992;BME280;29633;49.168;9.848;2022-08-03T02:14:08;96921.97;;;24.05;47.25
40992;BME280;29633;49.168;9.848;2022-08-03T02:16:35;96929.28;;;24.03;47.53
40992;BME280;29633;49.168;9.848;2022-08-03T02:19:05;96923.97;;;24.03;47.41
40992;BME280;29633;49.168;9.848;2022-08-03T02:21:35;96932.13;;;24.01;47.51
40992;BME280;29633;49.168;9.848;2022-08-03T02:24:03;96928.03;;;23.99;47.66
40992;BME280;29633;49.168;9.848;2022-08-03T02:26:30;96925.81;;;23.96;47.44
40992;BME280;29633;49.168;9.848;2022-08-03T02:29:05;96912.97;;;23.93;47.50
40992;BME280;29633;49.168;9.848;2022-08-03T02:31:36;96917.44;;;23.92;47.50
40992;BME280;29633;49.168;9.848;2022-08-03T02:34:08;96916.63;;;23.92;47.76
40992;BME280;29633;49.168;9.848;2022-08-03T02:36:38;96914.81;;;23.92;47.68
40992;BME280;29633;49.168;9.848;2022-08-03T02:39:09;96914.81;;;23.92;47.60
40992;BME280;29633;49.168;9.848;2022-08-03T02:41:42;96909.72;;;23.91;47.70
40992;BME280;29633;49.168;9.848;2022-08-03T02:44:12;96910.09;;;23.88;47.76
40992;BME280;29633;49.168;9.848;2022-08-03T02:46:42;96918.28;;;23.86;47.83
40992;BME280;29633;49.168;9.848;2022-08-03T02:49:12;96911.75;;;23.82;47.60
40992;BME280;29633;49.168;9.848;2022-08-03T02:51:39;96917.47;;;23.79;47.56
40992;BME280;29633;49.168;9.848;2022-08-03T02:54:06;96914.00;;;23.79;48.04
40992;BME280;29633;49.168;9.848;2022-08-03T02:56:34;96914.41;;;23.76;47.85
40992;BME280;29633;49.168;9.848;2022-08-03T02:59:01;96909.28;;;23.74;47.85
40992;BME280;29633;49.168;9.848;2022-08-03T03:01:28;96910.09;;;23.75;47.85
40992;BME280;29633;49.168;9.848;2022-08-03T03:03:56;96905.81;;;23.74;48.21
40992;BME280;29633;49.168;9.848;2022-08-03T03:06:24;96905.00;;;23.73;47.98
40992;BME280;29633;49.168;9.848;2022-08-03T03:08:52;96907.47;;;23.75;48.19
40992;BME280;29633;49.168;9.848;2022-08-03T03:11:20;96914.81;;;23.73;48.01
40992;BME280;29633;49.168;9.848;2022-08-03T03:13:48;96906.03;;;23.72;48.01
40992;BME280;29633;49.168;9.848;2022-08-03T03:16:15;96906.03;;;23.72;48.24
40992;BME280;29633;49.168;9.848;2022-08-03T03:18:44;96911.53;;;23.71;48.23
40992;BME280;29633;49.168;9.848;2022-08-03T03:21:14;96908.28;;;23.69;48.47
40992;BME280;29633;49.168;9.848;2022-08-03T03:23:41;96913.34;;;23.64;48.59
40992;BME280;29633;49.168;9.848;2022-08-03T03:26:08;96905.63;;;23.62;48.26
40992;BME280;29633;49.168;9.848;2022-08-03T03:28:35;96910.09;;;23.62;48.24
40992;BME280;29633;49.168;9.848;2022-08-03T03:31:05;96914.34;;;23.63;48.27
40992;BME280;29633;49.168;9.848;2022-08-03T03:33:33;96914.34;;;23.63;48.53
40992;BME280;29633;49.168;9.848;2022-08-03T03:35:59;96914.16;;;23.58;48.39
40992;BME280;29633;49.168;9.848;2022-08-03T03:38:26;96922.88;;;23.51;48.44
40992;BME280;29633;49.168;9.848;2022-08-03T03:40:52;96922.47;;;23.41;48.65
40992;BME280;29633;49.168;9.848;2022-08-03T03:43:21;96912.25;;;23.38;48.38
40992;BME280;29633;49.168;9.848;2022-08-03T03:45:47;96911.66;;;23.36;48.54
40992;BME280;29633;49.168;9.848;2022-08-03T03:48:13;96917.53;;;23.38;48.68
40992;BME280;29633;49.168;9.848;2022-08-03T03:50:39;96913.66;;;23.34;48.86
40992;BME280;29633;49.168;9.848;2022-08-03T03:53:09;96918.94;;;23.34;48.54
40992;BME280;29633;49.168;9.848;2022-08-03T03:55:37;96915.69;;;23.32;48.71
40992;BME280;29633;49.168;9.848;2022-08-03T03:58:03;96909.78;;;23.30;48.66
40992;BME280;29633;49.168;9.848;2022-08-03T04:00:29;96927.06;;;23.26;48.98
40992;BME280;29633;49.168;9.848;2022-08-03T04:02:56;96924.63;;;23.25;48.67
40992;BME280;29633;49.168;9.848;2022-08-03T04:05:21;96916.88;;;23.23;48.61
40992;BME280;29633;49.168;9.848;2022-08-03T04:08:11;96921.75;;;23.20;48.73
40992;BME280;29633;49.168;9.848;2022-08-03T04:11:23;96915.44;;;23.14;49.02
40992;BME280;29633;49.168;9.848;2022-08-03T04:14:09;96912.78;;;23.14;49.07
40992;BME280;29633;49.168;9.848;2022-08-03T04:16:41;96920.09;;;23.12;48.86
40992;BME280;29633;49.168;9.848;2022-08-03T04:19:39;96917.44;;;23.12;49.17
40992;BME280;29633;49.168;9.848;2022-08-03T04:22:10;96913.97;;;23.12;48.81
40992;BME280;29633;49.168;9.848;2022-08-03T04:25:03;96911.56;;;23.10;49.54
40992;BME280;29633;49.168;9.848;2022-08-03T04:27:37;96917.44;;;23.12;49.38
40992;BME280;29633;49.168;9.848;2022-08-03T04:30:05;96912.78;;;23.14;49.13
40992;BME280;29633;49.168;9.848;2022-08-03T04:32:31;96917.69;;;23.17;49.49
40992;BME280;29633;49.168;9.848;2022-08-03T04:34:58;96914.84;;;23.19;49.22
40992;BME280;29633;49.168;9.848;2022-08-03T04:37:46;96918.28;;;23.19;49.20
40992;BME280;29633;49.168;9.848;2022-08-03T04:40:18;96922.78;;;23.19;49.48
40992;BME280;29633;49.168;9.848;2022-08-03T04:42:45;96918.09;;;23.21;49.52
40992;BME280;29633;49.168;9.848;2022-08-03T04:45:15;96926.63;;;23.23;49.73
40992;BME280;29633;49.168;9.848;2022-08-03T04:47:42;96920.56;;;23.29;49.68
40992;BME280;29633;49.168;9.848;2022-08-03T04:50:09;96926.88;;;23.34;49.70
40992;BME280;29633;49.168;9.848;2022-08-03T04:52:35;96924.66;;;23.38;49.55
40992;BME280;29633;49.168;9.848;2022-08-03T04:55:01;96927.75;;;23.41;49.48
40992;BME280;29633;49.168;9.848;2022-08-03T04:57:27;96922.69;;;23.46;49.76
40992;BME280;29633;49.168;9.848;2022-08-03T04:59:53;96926.56;;;23.50;49.60
40992;BME280;29633;49.168;9.848;2022-08-03T05:02:21;96927.59;;;23.56;49.58
40992;BME280;29633;49.168;9.848;2022-08-03T05:04:47;96931.28;;;23.62;49.67
40992;BME280;29633;49.168;9.848;2022-08-03T05:07:14;96927.81;;;23.68;49.55
40992;BME280;29633;49.168;9.848;2022-08-03T05:09:41;96932.28;;;23.74;49.53
40992;BME280;29633;49.168;9.848;2022-08-03T05:12:07;96933.13;;;23.81;49.56
40992;BME280;29633;49.168;9.848;2022-08-03T05:14:34;96933.94;;;23.88;49.61
40992;BME280;29633;49.168;9.848;2022-08-03T05:17:03;96934.97;;;23.93;49.65
40992;BME280;29633;49.168;9.848;2022-08-03T05:19:28;96936.00;;;23.99;49.69
40992;BME280;29633;49.168;9.848;2022-08-03T05:21:55;96937.84;;;24.05;49.43
40992;BME280;29633;49.168;9.848;2022-08-03T05:24:20;96941.31;;;24.12;49.42
40992;BME280;29633;49.168;9.848;2022-08-03T05:26:46;96948.28;;;24.20;49.33
40992;BME280;29633;49.168;9.848;2022-08-03T05:29:12;96941.94;;;24.27;48.90
40992;BME280;29633;49.168;9.848;2022-08-03T05:31:37;96946.44;;;24.33;49.33
40992;BME280;29633;49.168;9.848;2022-08-03T05:34:03;96944.59;;;24.40;49.03
40992;BME280;29633;49.168;9.848;2022-08-03T05:36:29;96944.38;;;24.48;48.89
40992;BME280;29633;49.168;9.848;2022-08-03T05:38:55;96943.53;;;24.55;48.81
40992;BME280;29633;49.168;9.848;2022-08-03T05:41:20;96939.88;;;24.62;48.43
40992;BME280;29633;49.168;9.848;2022-08-03T05:43:46;96939.03;;;24.68;48.43
40992;BME280;29633;49.168;9.848;2022-08-03T05:46:12;96940.66;;;24.76;48.12
40992;BME280;29633;49.168;9.848;2022-08-03T05:48:38;96945.53;;;24.85;48.18
40992;BME280;29633;49.168;9.848;2022-08-03T05:51:03;96948.97;;;24.92;48.13
40992;BME280;29633;49.168;9.848;2022-08-03T05:53:35;96940.81;;;25.01;47.92
40992;BME280;29633;49.168;9.848;2022-08-03T05:56:01;96938.13;;;25.07;48.05
40992;BME280;29633;49.168;9.848;2022-08-03T05:58:26;96947.69;;;25.15;47.99
40992;BME280;29633;49.168;9.848;2022-08-03T06:00:52;96938.69;;;25.22;47.79
40992;BME280;29633;49.168;9.848;2022-08-03T06:03:18;96942.09;;;25.29;47.71
40992;BME280;29633;49.168;9.848;2022-08-03T06:05:44;96942.88;;;25.36;47.59
40992;BME280;29633;49.168;9.848;2022-08-03T06:08:10;96945.31;;;25.44;47.11
40992;BME280;29633;49.168;9.848;2022-08-03T06:10:36;96946.13;;;25.52;47.21
40992;BME280;29633;49.168;9.848;2022-08-03T06:13:03;96945.88;;;25.60;47.10
40992;BME280;29633;49.168;9.848;2022-08-03T06:15:28;96947.47;;;25.67;46.89
40992;BME280;29633;49.168;9.848;2022-08-03T06:17:57;96946.41;;;25.75;47.05
40992;BME280;29633;49.168;9.848;2022-08-03T06:20:23;96949.41;;;25.85;47.02
40992;BME280;29633;49.168;9.848;2022-08-03T06:22:49;96943.22;;;25.91;46.82
40992;BME280;29633;49.168;9.848;2022-08-03T06:25:15;96948.72;;;25.96;46.72
40992;BME280;29633;49.168;9.848;2022-08-03T06:27:41;96947.41;;;26.05;46.74
40992;BME280;29633;49.168;9.848;2022-08-03T06:30:09;96944.47;;;26.13;46.51
40992;BME280;29633;49.168;9.848;2022-08-03T06:32:39;96938.31;;;26.19;46.40
40992;BME280;29633;49.168;9.848;2022-08-03T06:35:07;96940.72;;;26.27;45.97
40992;BME280;29633;49.168;9.848;2022-08-03T06:37:48;96944.13;;;26.34;46.13
40992;BME280;29633;49.168;9.848;2022-08-03T06:40:20;96950.19;;;26.41;46.16
40992;BME280;29633;49.168;9.848;2022-08-03T06:42:55;96958.50;;;26.52;46.09
40992;BME280;29633;49.168;9.848;2022-08-03T06:45:21;96953.50;;;26.62;45.92
40992;BME280;29633;49.168;9.848;2022-08-03T06:47:47;96950.78;;;26.68;45.82
40992;BME280;29633;49.168;9.848;2022-08-03T06:50:23;96954.19;;;26.75;45.58
40992;BME280;29633;49.168;9.848;2022-08-03T06:52:49;96944.69;;;26.86;45.58
40992;BME280;29633;49.168;9.848;2022-08-03T06:55:15;96950.53;;;26.95;45.26
40992;BME280;29633;49.168;9.848;2022-08-03T06:57:41;96954.31;;;27.05;45.19
40992;BME280;29633;49.168;9.848;2022-08-03T07:00:07;96954.59;;;27.15;44.92
40992;BME280;29633;49.168;9.848;2022-08-03T07:02:34;96946.31;;;27.23;44.97
40992;BME280;29633;49.168;9.848;2022-08-03T07:05:00;96948.22;;;27.34;44.88
40992;BME280;29633;49.168;9.848;2022-08-03T07:07:25;96950.56;;;27.42;44.58
40992;BME280;29633;49.168;9.848;2022-08-03T07:09:51;96956.22;;;27.53;44.66
40992;BME280;29633;49.168;9.848;2022-08-03T07:12:17;96951.16;;;27.63;44.47
40992;BME280;29633;49.168;9.848;2022-08-03T07:14:43;96956.75;;;27.73;44.25
40992;BME280;29633;49.168;9.848;2022-08-03T07:17:08;96957.81;;;27.83;44.01
40992;BME280;29633;49.168;9.848;2022-08-03T07:19:34;96952.75;;;27.94;44.09
40992;BME280;29633;49.168;9.848;2022-08-03T07:22:00;96962.63;;;28.05;43.82
40992;BME280;29633;49.168;9.848;2022-08-03T07:24:27;96957.34;;;28.16;43.89
40992;BME280;29633;49.168;9.848;2022-08-03T07:26:53;96960.03;;;28.28;43.78
40992;BME280;29633;49.168;9.848;2022-08-03T07:29:19;96955.75;;;28.39;43.72
40992;BME280;29633;49.168;9.848;2022-08-03T07:31:45;96946.94;;;28.50;43.45
40992;BME280;29633;49.168;9.848;2022-08-03T07:34:11;96953.91;;;28.62;43.50
40992;BME280;29633;49.168;9.848;2022-08-03T07:36:36;96951.81;;;28.76;43.07
40992;BME280;29633;49.168;9.848;2022-08-03T07:39:03;96956.94;;;28.89;43.31
40992;BME280;29633;49.168;9.848;2022-08-03T07:41:29;96950.53;;;29.02;42.88
40992;BME280;29633;49.168;9.848;2022-08-03T07:43:54;96950.16;;;29.10;42.83
40992;BME280;29633;49.168;9.848;2022-08-03T07:46:20;96951.19;;;29.20;42.83
40992;BME280;29633;49.168;9.848;2022-08-03T07:48:46;96949.56;;;29.31;42.73
40992;BME280;29633;49.168;9.848;2022-08-03T07:51:12;96945.22;;;29.42;42.35
40992;BME280;29633;49.168;9.848;2022-08-03T07:53:37;96951.22;;;29.49;42.08
40992;BME280;29633;49.168;9.848;2022-08-03T07:56:03;96949.00;;;29.57;42.06
40992;BME280;29633;49.168;9.848;2022-08-03T07:58:29;96947.09;;;29.69;41.78
40992;BME280;29633;49.168;9.848;2022-08-03T08:00:55;96947.50;;;29.78;41.51
40992;BME280;29633;49.168;9.848;2022-08-03T08:03:20;96944.00;;;29.89;41.26
40992;BME280;29633;49.168;9.848;2022-08-03T08:05:47;96943.72;;;30.02;41.22
40992;BME280;29633;49.168;9.848;2022-08-03T08:08:13;96942.78;;;30.13;41.05
40992;BME280;29633;49.168;9.848;2022-08-03T08:10:39;96944.13;;;30.27;41.04
40992;BME280;29633;49.168;9.848;2022-08-03T08:13:05;96943.22;;;30.39;40.40
40992;BME280;29633;49.168;9.848;2022-08-03T08:15:31;96937.25;;;30.48;40.27
40992;BME280;29633;49.168;9.848;2022-08-03T08:17:59;96933.72;;;30.64;40.24
40992;BME280;29633;49.168;9.848;2022-08-03T08:20:34;96941.16;;;30.79;39.93
40992;BME280;29633;49.168;9.848;2022-08-03T08:23:05;96943.50;;;30.92;39.27
40992;BME280;29633;49.168;9.848;2022-08-03T08:25:32;96943.56;;;30.97;39.11
40992;BME280;29633;49.168;9.848;2022-08-03T08:27:59;96934.63;;;31.08;38.77
40992;BME280;29633;49.168;9.848;2022-08-03T08:30:30;96936.94;;;31.21;39.00
40992;BME280;29633;49.168;9.848;2022-08-03T08:32:58;96938.72;;;31.38;38.36
40992;BME280;29633;49.168;9.848;2022-08-03T08:35:24;96935.34;;;31.47;38.35
40992;BME280;29633;49.168;9.848;2022-08-03T08:37:50;96935.75;;;31.56;38.93
40992;BME280;29633;49.168;9.848;2022-08-03T08:40:16;96929.38;;;31.62;38.25
40992;BME280;29633;49.168;9.848;2022-08-03T08:42:44;96938.59;;;31.71;37.89
40992;BME280;29633;49.168;9.848;2022-08-03T08:45:11;96932.00;;;31.84;37.77
40992;BME280;29633;49.168;9.848;2022-08-03T08:47:43;96936.69;;;31.98;37.50
40992;BME280;29633;49.168;9.848;2022-08-03T08:50:10;96934.88;;;32.04;37.29
40992;BME280;29633;49.168;9.848;2022-08-03T08:52:39;96935.75;;;32.09;37.45
40992;BME280;29633;49.168;9.848;2022-08-03T08:55:08;96937.44;;;32.15;37.06
40992;BME280;29633;49.168;9.848;2022-08-03T08:57:38;96934.81;;;32.26;37.15
40992;BME280;29633;49.168;9.848;2022-08-03T09:00:09;96933.56;;;32.38;37.40
40992;BME280;29633;49.168;9.848;2022-08-03T09:02:38;96935.78;;;32.46;37.08
40992;BME280;29633;49.168;9.848;2022-08-03T09:05:04;96928.06;;;32.55;36.78
40992;BME280;29633;49.168;9.848;2022-08-03T09:07:30;96930.31;;;32.63;36.75
40992;BME280;29633;49.168;9.848;2022-08-03T09:09:56;96924.16;;;32.73;37.01
40992;BME280;29633;49.168;9.848;2022-08-03T09:12:21;96923.41;;;32.82;36.77
40992;BME280;29633;49.168;9.848;2022-08-03T09:14:47;96932.06;;;32.94;37.02
40992;BME280;29633;49.168;9.848;2022-08-03T09:17:14;96927.84;;;33.08;36.81
40992;BME280;29633;49.168;9.848;2022-08-03T09:19:39;96934.38;;;33.23;36.47
40992;BME280;29633;49.168;9.848;2022-08-03T09:22:12;96929.31;;;33.31;35.69
40992;BME280;29633;49.168;9.848;2022-08-03T09:25:05;96931.22;;;33.41;35.67
40992;BME280;29633;49.168;9.848;2022-08-03T09:27:43;96929.63;;;33.50;35.57
40992;BME280;29633;49.168;9.848;2022-08-03T09:30:16;96929.63;;;33.50;34.93
40992;BME280;29633;49.168;9.848;2022-08-03T09:32:43;96923.72;;;33.58;35.58
40992;BME280;29633;49.168;9.848;2022-08-03T09:35:12;96923.00;;;33.68;34.99
40992;BME280;29633;49.168;9.848;2022-08-03T09:37:39;96921.66;;;33.75;34.77
40992;BME280;29633;49.168;9.848;2022-08-03T09:40:06;96919.78;;;33.81;34.41
40992;BME280;29633;49.168;9.848;2022-08-03T09:42:32;96919.78;;;33.91;34.65
40992;BME280;29633;49.168;9.848;2022-08-03T09:45:03;96923.03;;;33.93;33.83
40992;BME280;29633;49.168;9.848;2022-08-03T09:47:33;96916.31;;;33.95;33.82
40992;BME280;29633;49.168;9.848;2022-08-03T09:50:03;96917.13;;;33.86;34.85
40992;BME280;29633;49.168;9.848;2022-08-03T09:52:39;96920.34;;;33.98;34.18
40992;BME280;29633;49.168;9.848;2022-08-03T09:55:13;96913.34;;;34.07;33.62
40992;BME280;29633;49.168;9.848;2022-08-03T09:57:39;96911.47;;;34.12;33.98
40992;BME280;29633;49.168;9.848;2022-08-03T10:00:14;96913.66;;;34.21;33.74
40992;BME280;29633;49.168;9.848;2022-08-03T10:02:43;96917.94;;;34.32;33.65
40992;BME280;29633;49.168;9.848;2022-08-03T10:05:11;96915.78;;;34.34;33.33
40992;BME280;29633;49.168;9.848;2022-08-03T10:07:42;96912.28;;;34.33;32.84
40992;BME280;29633;49.168;9.848;2022-08-03T10:10:09;96916.84;;;34.38;32.75
40992;BME280;29633;49.168;9.848;2022-08-03T10:12:36;96908.25;;;34.46;32.96
40992;BME280;29633;49.168;9.848;2022-08-03T10:15:04;96903.38;;;34.58;32.66
40992;BME280;29633;49.168;9.848;2022-08-03T10:17:30;96898.00;;;34.68;32.73
40992;BME280;29633;49.168;9.848;2022-08-03T10:19:56;96909.56;;;34.79;32.38
40992;BME280;29633;49.168;9.848;2022-08-03T10:22:30;96902.81;;;34.81;32.15
40992;BME280;29633;49.168;9.848;2022-08-03T10:25:11;96897.41;;;34.81;31.99
40992;BME280;29633;49.168;9.848;2022-08-03T10:27:41;96897.41;;;34.81;31.32
40992;BME280;29633;49.168;9.848;2022-08-03T10:30:11;96903.88;;;34.80;31.71
40992;BME280;29633;49.168;9.848;2022-08-03T10:32:43;96897.41;;;34.81;31.07
40992;BME280;29633;49.168;9.848;2022-08-03T10:35:16;96894.16;;;34.89;30.92
40992;BME280;29633;49.168;9.848;2022-08-03T10:37:51;96877.69;;;34.96;31.34
40992;BME280;29633;49.168;9.848;2022-08-03T10:40:22;96883.88;;;35.01;31.13
40992;BME280;29633;49.168;9.848;2022-08-03T10:42:51;96889.25;;;35.06;30.96
40992;BME280;29633;49.168;9.848;2022-08-03T10:45:22;96882.22;;;35.05;30.55
40992;BME280;29633;49.168;9.848;2022-08-03T10:47:50;96882.78;;;35.07;30.32
40992;BME280;29633;49.168;9.848;2022-08-03T10:50:18;96885.19;;;35.14;30.45
40992;BME280;29633;49.168;9.848;2022-08-03T10:53:05;96883.56;;;35.23;30.13
40992;BME280;29633;49.168;9.848;2022-08-03T10:55:33;96872.97;;;35.32;30.42
40992;BME280;29633;49.168;9.848;2022-08-03T11:01:02;96866.41;;;35.48;30.10
40992;BME280;29633;49.168;9.848;2022-08-03T11:03:28;96859.91;;;35.54;30.17
40992;BME280;29633;49.168;9.848;2022-08-03T11:06:17;96865.78;;;35.66;30.62
40992;BME280;29633;49.168;9.848;2022-08-03T11:08:48;96864.56;;;35.82;30.57
40992;BME280;29633;49.168;9.848;2022-08-03T11:14:05;96858.50;;;36.00;30.56
40992;BME280;29633;49.168;9.848;2022-08-03T11:19:09;96862.66;;;36.22;30.04
40992;BME280;29633;49.168;9.848;2022-08-03T11:21:55;96855.09;;;36.24;29.62
40992;BME280;29633;49.168;9.848;2022-08-03T11:30:07;96848.84;;;36.28;28.70
40992;BME280;29633;49.168;9.848;2022-08-03T11:35:24;96848.53;;;36.30;28.85
40992;BME280;29633;49.168;9.848;2022-08-03T11:46:06;96851.19;;;36.64;28.45
40992;BME280;29633;49.168;9.848;2022-08-03T11:48:41;96851.69;;;36.66;28.20
40992;BME280;29633;49.168;9.848;2022-08-03T11:51:24;96844.22;;;36.58;28.18
40992;BME280;29633;49.168;9.848;2022-08-03T11:53:56;96841.81;;;36.56;28.10
40992;BME280;29633;49.168;9.848;2022-08-03T11:56:22;96839.06;;;36.61;28.39
40992;BME280;29633;49.168;9.848;2022-08-03T11:58:51;96835.94;;;36.73;28.24
40992;BME280;29633;49.168;9.848;2022-08-03T12:01:20;96831.31;;;36.78;28.29
40992;BME280;29633;49.168;9.848;2022-08-03T12:03:46;96830.41;;;36.83;28.14
40992;BME280;29633;49.168;9.848;2022-08-03T12:06:14;96823.06;;;36.88;28.15
40992;BME280;29633;49.168;9.848;2022-08-03T12:08:42;96822.94;;;36.98;27.82
40992;BME280;29633;49.168;9.848;2022-08-03T12:11:12;96826.09;;;37.06;27.96
40992;BME280;29633;49.168;9.848;2022-08-03T12:13:47;96819.56;;;37.12;27.70
40992;BME280;29633;49.168;9.848;2022-08-03T12:16:25;96834.59;;;37.18;27.32
40992;BME280;29633;49.168;9.848;2022-08-03T12:19:04;96820.88;;;37.14;27.07
40992;BME280;29633;49.168;9.848;2022-08-03T12:21:31;96827.41;;;37.08;27.42
40992;BME280;29633;49.168;9.848;2022-08-03T12:23:59;96823.78;;;36.94;27.12
40992;BME280;29633;49.168;9.848;2022-08-03T12:26:26;96826.84;;;36.87;27.45
40992;BME280;29633;49.168;9.848;2022-08-03T12:28:53;96823.66;;;36.85;27.13
40992;BME280;29633;49.168;9.848;2022-08-03T12:31:18;96815.09;;;36.78;27.05
40992;BME280;29633;49.168;9.848;2022-08-03T12:36:23;96810.63;;;36.87;27.47
40992;BME280;29633;49.168;9.848;2022-08-03T12:38:58;96816.72;;;36.98;27.35
40992;BME280;29633;49.168;9.848;2022-08-03T12:41:37;96812.81;;;37.09;27.11
40992;BME280;29633;49.168;9.848;2022-08-03T12:44:06;96809.19;;;37.19;27.20
40992;BME280;29633;49.168;9.848;2022-08-03T12:46:40;96812.81;;;37.28;26.81
40992;BME280;29633;49.168;9.848;2022-08-03T12:49:12;96801.41;;;37.31;26.97
40992;BME280;29633;49.168;9.848;2022-08-03T12:54:22;96806.03;;;37.30;26.84
40992;BME280;29633;49.168;9.848;2022-08-03T12:56:58;96812.25;;;37.31;26.42
40992;BME280;29633;49.168;9.848;2022-08-03T12:59:31;96804.56;;;37.38;26.84
40992;BME280;29633;49.168;9.848;2022-08-03T13:01:57;96805.53;;;37.47;26.37
40992;BME280;29633;49.168;9.848;2022-08-03T13:04:32;96800.63;;;37.49;26.09
40992;BME280;29633;49.168;9.848;2022-08-03T13:07:07;96805.31;;;37.43;25.84
40992;BME280;29633;49.168;9.848;2022-08-03T13:09:59;96799.69;;;37.40;26.07
40992;BME280;29633;49.168;9.848;2022-08-03T13:12:27;96805.25;;;37.49;26.30
40992;BME280;29633;49.168;9.848;2022-08-03T13:14:56;96796.75;;;37.55;26.61
40992;BME280;29633;49.168;9.848;2022-08-03T13:17:23;96801.50;;;37.63;26.31
40992;BME280;29633;49.168;9.848;2022-08-03T13:19:50;96796.00;;;37.68;26.24
40992;BME280;29633;49.168;9.848;2022-08-03T13:22:20;96795.69;;;37.70;26.17
40992;BME280;29633;49.168;9.848;2022-08-03T13:24:52;96793.41;;;37.77;26.19
40992;BME280;29633;49.168;9.848;2022-08-03T13:27:20;96792.47;;;37.86;26.42
40992;BME280;29633;49.168;9.848;2022-08-03T13:29:46;96785.59;;;37.94;26.23
40992;BME280;29633;49.168;9.848;2022-08-03T13:32:12;96790.91;;;37.99;26.42
40992;BME280;29633;49.168;9.848;2022-08-03T13:34:38;96784.31;;;38.05;26.37
40992;BME280;29633;49.168;9.848;2022-08-03T13:37:04;96784.72;;;38.12;26.06
40992;BME280;29633;49.168;9.848;2022-08-03T13:39:30;96779.50;;;38.16;25.86
40992;BME280;29633;49.168;9.848;2022-08-03T13:41:56;96783.81;;;38.17;25.62
40992;BME280;29633;49.168;9.848;2022-08-03T13:44:21;96774.19;;;38.11;25.39
40992;BME280;29633;49.168;9.848;2022-08-03T13:46:48;96782.41;;;38.06;25.33